createdAt,value
2018-01-25T00:00:41.511Z,1003.75
2018-01-25T00:01:41.519Z,1003.76
2018-01-25T00:02:41.537Z,1003.77
2018-01-25T00:03:41.593Z,1003.75
2018-01-25T00:04:41.571Z,1003.86
2018-01-25T00:05:41.582Z,1003.83
2018-01-25T00:06:41.599Z,1003.94
2018-01-25T00:07:41.613Z,1004.00
2018-01-25T00:08:41.634Z,1004.04
2018-01-25T00:09:41.642Z,1004.07
2018-01-25T00:11:42.208Z,1004.32
2018-01-25T00:12:42.445Z,1004.35
2018-01-25T00:13:41.704Z,1004.31
2018-01-25T00:14:41.730Z,1004.40
2018-01-25T00:15:41.737Z,1004.52
2018-01-25T00:16:41.900Z,1004.50
2018-01-25T00:17:41.767Z,1004.52
2018-01-25T00:18:41.781Z,1004.52
2018-01-25T00:19:41.797Z,1004.40
2018-01-25T00:20:41.809Z,1004.47
2018-01-25T00:21:41.826Z,1004.61
2018-01-25T00:22:41.842Z,1004.62
2018-01-25T00:23:41.869Z,1004.60
2018-01-25T00:24:41.870Z,1004.51
2018-01-25T00:25:41.889Z,1004.69
2018-01-25T00:26:41.899Z,1004.67
2018-01-25T00:27:41.914Z,1004.81
2018-01-25T00:28:41.928Z,1004.79
2018-01-25T00:29:41.943Z,1004.84
2018-01-25T00:30:41.958Z,1004.85
2018-01-25T00:31:41.971Z,1004.76
2018-01-25T00:32:41.986Z,1004.72
2018-01-25T00:33:42.001Z,1004.62
2018-01-25T00:34:42.015Z,1004.63
2018-01-25T00:35:42.030Z,1004.70
2018-01-25T00:36:42.136Z,1004.59
2018-01-25T00:37:42.152Z,1004.54
2018-01-25T00:38:42.074Z,1004.62
2018-01-25T00:39:42.086Z,1004.71
2018-01-25T00:41:42.363Z,1004.71
2018-01-25T00:42:42.140Z,1004.74
2018-01-25T00:43:42.145Z,1004.72
2018-01-25T00:45:42.439Z,1004.69
2018-01-25T00:46:42.552Z,1004.71
2018-01-25T00:47:42.202Z,1004.75
2018-01-25T00:48:42.216Z,1004.77
2018-01-25T00:49:42.229Z,1004.83
2018-01-25T00:50:42.242Z,1004.76
2018-01-25T00:51:42.257Z,1004.77
2018-01-25T00:52:42.282Z,1004.81
2018-01-25T00:53:42.290Z,1004.83
2018-01-25T00:54:42.302Z,1004.89
2018-01-25T00:55:42.317Z,1004.83
2018-01-25T00:56:42.329Z,1004.78
2018-01-25T00:57:42.341Z,1004.82
2018-01-25T00:58:42.357Z,1004.80
2018-01-25T00:59:42.371Z,1004.83
2018-01-25T01:00:42.386Z,1004.83
2018-01-25T01:01:42.405Z,1004.85
2018-01-25T01:02:42.413Z,1004.85
2018-01-25T01:03:42.431Z,1004.87
2018-01-25T01:04:42.442Z,1004.88
2018-01-25T01:05:42.462Z,1004.89
2018-01-25T01:06:42.468Z,1004.87
2018-01-25T01:07:42.529Z,1004.90
2018-01-25T01:08:42.555Z,1004.88
2018-01-25T01:09:42.857Z,1004.83
2018-01-25T01:10:42.543Z,1004.83
2018-01-25T01:11:42.539Z,1004.81
2018-01-25T01:12:42.559Z,1004.83
2018-01-25T01:13:42.569Z,1004.86
2018-01-25T01:14:42.884Z,1004.84
2018-01-25T01:16:42.823Z,1004.90
2018-01-25T01:18:42.638Z,1004.93
2018-01-25T01:19:42.655Z,1004.92
2018-01-25T01:20:42.668Z,1004.92
2018-01-25T01:21:42.680Z,1004.89
2018-01-25T01:22:42.695Z,1004.95
2018-01-25T01:23:42.709Z,1004.95
2018-01-25T01:24:42.729Z,1005.01
2018-01-25T01:25:42.737Z,1004.98
2018-01-25T01:26:42.752Z,1004.98
2018-01-25T01:27:42.765Z,1004.96
2018-01-25T01:28:42.863Z,1005.00
2018-01-25T01:29:42.793Z,1004.98
2018-01-25T01:30:42.807Z,1005.06
2018-01-25T01:31:42.822Z,1005.04
2018-01-25T01:32:42.986Z,1005.01
2018-01-25T01:33:42.848Z,1005.08
2018-01-25T01:34:42.863Z,1005.04
2018-01-25T01:35:42.878Z,1005.08
2018-01-25T01:36:42.891Z,1005.10
2018-01-25T01:37:42.909Z,1005.03
2018-01-25T01:38:42.969Z,1005.05
2018-01-25T01:39:43.010Z,1005.10
2018-01-25T01:40:43.043Z,1005.12
2018-01-25T01:41:42.969Z,1005.13
2018-01-25T01:42:42.976Z,1005.13
2018-01-25T01:43:42.991Z,1005.17
2018-01-25T01:47:43.402Z,1005.27
2018-01-25T01:48:43.126Z,1005.28
2018-01-25T01:49:43.076Z,1005.30
2018-01-25T01:50:43.090Z,1005.35
2018-01-25T01:51:43.104Z,1005.33
2018-01-25T01:52:43.120Z,1005.35
2018-01-25T01:53:43.132Z,1005.32
2018-01-25T01:54:43.300Z,1005.34
2018-01-25T01:55:43.161Z,1005.34
2018-01-25T01:56:43.176Z,1005.34
2018-01-25T01:57:43.189Z,1005.35
2018-01-25T01:58:43.349Z,1005.36
2018-01-25T01:59:43.219Z,1005.30
2018-01-25T02:00:43.233Z,1005.25
2018-01-25T02:01:43.247Z,1005.28
2018-01-25T02:02:43.267Z,1005.30
2018-01-25T02:03:43.276Z,1005.32
2018-01-25T02:04:43.291Z,1005.33
2018-01-25T02:05:43.307Z,1005.34
2018-01-25T02:06:43.319Z,1005.32
2018-01-25T02:07:43.334Z,1005.31
2018-01-25T02:08:43.350Z,1005.34
2018-01-25T02:09:43.361Z,1005.35
2018-01-25T02:10:43.373Z,1005.35
2018-01-25T02:11:43.390Z,1005.32
2018-01-25T02:12:43.403Z,1005.31
2018-01-25T02:13:43.470Z,1005.42
2018-01-25T02:14:43.436Z,1005.40
2018-01-25T02:15:43.477Z,1005.47
2018-01-25T02:16:43.460Z,1005.46
2018-01-25T02:17:43.488Z,1005.47
2018-01-25T02:20:44.294Z,1005.44
2018-01-25T02:21:43.532Z,1005.46
2018-01-25T02:22:43.545Z,1005.45
2018-01-25T02:23:43.560Z,1005.47
2018-01-25T02:24:43.575Z,1005.51
2018-01-25T02:25:43.588Z,1005.50
2018-01-25T02:26:43.602Z,1005.53
2018-01-25T02:27:43.617Z,1005.58
2018-01-25T02:28:43.631Z,1005.57
2018-01-25T02:29:43.647Z,1005.58
2018-01-25T02:30:43.664Z,1005.60
2018-01-25T02:31:43.679Z,1005.58
2018-01-25T02:32:43.694Z,1005.63
2018-01-25T02:33:43.702Z,1005.62
2018-01-25T02:34:43.737Z,1005.66
2018-01-25T02:35:43.742Z,1005.69
2018-01-25T02:36:43.747Z,1005.72
2018-01-25T02:37:43.763Z,1005.74
2018-01-25T02:38:43.776Z,1005.75
2018-01-25T02:39:43.789Z,1005.74
2018-01-25T02:40:43.802Z,1005.70
2018-01-25T02:41:43.818Z,1005.75
2018-01-25T02:42:43.832Z,1005.73
2018-01-25T02:43:43.851Z,1005.75
2018-01-25T02:44:43.868Z,1005.78
2018-01-25T02:45:43.875Z,1005.72
2018-01-25T02:46:43.895Z,1005.71
2018-01-25T02:47:43.955Z,1005.74
2018-01-25T02:48:43.927Z,1005.74
2018-01-25T02:49:44.136Z,1005.70
2018-01-25T02:50:44.121Z,1005.67
2018-01-25T02:52:44.690Z,1005.69
2018-01-25T02:54:44.711Z,1005.71
2018-01-25T02:55:44.288Z,1005.73
2018-01-25T02:56:44.899Z,1005.77
2018-01-25T02:57:45.050Z,1005.75
2018-01-25T02:59:44.075Z,1005.80
2018-01-25T03:00:44.348Z,1005.80
2018-01-25T03:01:44.241Z,1005.81
2018-01-25T03:02:44.329Z,1005.83
2018-01-25T03:03:44.727Z,1005.87
2018-01-25T03:04:44.152Z,1005.88
2018-01-25T03:05:44.160Z,1005.87
2018-01-25T03:06:44.443Z,1005.84
2018-01-25T03:07:44.771Z,1005.82
2018-01-25T03:08:44.206Z,1005.84
2018-01-25T03:09:44.224Z,1005.82
2018-01-25T03:11:44.248Z,1005.89
2018-01-25T03:12:44.939Z,1005.93
2018-01-25T03:13:44.917Z,1005.95
2018-01-25T03:14:44.570Z,1005.94
2018-01-25T03:15:44.402Z,1005.97
2018-01-25T03:16:44.964Z,1005.99
2018-01-25T03:17:44.557Z,1005.99
2018-01-25T03:18:45.343Z,1006.07
2018-01-25T03:19:45.084Z,1006.08
2018-01-25T03:21:45.768Z,1006.16
2018-01-25T03:23:45.223Z,1006.21
2018-01-25T03:24:44.807Z,1006.18
2018-01-25T03:27:45.335Z,1006.19
2018-01-25T03:28:44.575Z,1006.19
2018-01-25T03:29:44.617Z,1006.17
2018-01-25T03:30:45.284Z,1006.18
2018-01-25T03:31:45.424Z,1006.20
2018-01-25T03:32:45.397Z,1006.22
2018-01-25T03:33:45.556Z,1006.21
2018-01-25T03:34:44.778Z,1006.25
2018-01-25T03:35:44.798Z,1006.30
2018-01-25T03:36:44.732Z,1006.27
2018-01-25T03:37:44.689Z,1006.34
2018-01-25T03:38:45.254Z,1006.37
2018-01-25T03:39:44.649Z,1006.37
2018-01-25T03:40:44.661Z,1006.39
2018-01-25T03:41:45.451Z,1006.40
2018-01-25T03:42:44.798Z,1006.39
2018-01-25T03:43:46.276Z,1006.41
2018-01-25T03:44:45.479Z,1006.36
2018-01-25T03:45:44.781Z,1006.38
2018-01-25T03:46:45.587Z,1006.35
2018-01-25T03:47:44.760Z,1006.33
2018-01-25T03:48:44.922Z,1006.29
2018-01-25T03:49:44.788Z,1006.26
2018-01-25T03:50:45.367Z,1006.27
2018-01-25T03:51:44.875Z,1006.30
2018-01-25T03:52:45.412Z,1006.29
2018-01-25T03:53:45.007Z,1006.37
2018-01-25T03:54:44.874Z,1006.36
2018-01-25T03:55:45.929Z,1006.34
2018-01-25T03:56:45.459Z,1006.39
2018-01-25T03:57:46.297Z,1006.39
2018-01-25T03:58:46.018Z,1006.37
2018-01-25T04:00:44.944Z,1006.42
2018-01-25T04:01:44.957Z,1006.34
2018-01-25T04:02:44.973Z,1006.32
2018-01-25T04:03:44.986Z,1006.31
2018-01-25T04:04:45.001Z,1006.30
2018-01-25T04:05:45.014Z,1006.33
2018-01-25T04:06:45.030Z,1006.42
2018-01-25T04:07:45.044Z,1006.38
2018-01-25T04:08:45.057Z,1006.45
2018-01-25T04:09:45.073Z,1006.48
2018-01-25T04:10:45.087Z,1006.46
2018-01-25T04:11:45.160Z,1006.50
2018-01-25T04:12:45.201Z,1006.47
2018-01-25T04:13:45.131Z,1006.50
2018-01-25T04:14:45.153Z,1006.51
2018-01-25T04:15:45.158Z,1006.47
2018-01-25T04:16:45.330Z,1006.45
2018-01-25T04:17:45.186Z,1006.45
2018-01-25T04:18:45.202Z,1006.53
2018-01-25T04:19:45.217Z,1006.49
2018-01-25T04:20:45.231Z,1006.59
2018-01-25T04:21:45.245Z,1006.68
2018-01-25T04:22:45.258Z,1006.67
2018-01-25T04:23:45.278Z,1006.72
2018-01-25T04:24:45.287Z,1006.67
2018-01-25T04:25:45.302Z,1006.74
2018-01-25T04:27:45.333Z,1006.70
2018-01-25T04:28:45.399Z,1006.67
2018-01-25T04:29:45.963Z,1006.67
2018-01-25T04:30:45.421Z,1006.72
2018-01-25T04:31:45.416Z,1006.70
2018-01-25T04:32:45.403Z,1006.66
2018-01-25T04:33:45.416Z,1006.68
2018-01-25T04:34:45.435Z,1006.67
2018-01-25T04:35:45.454Z,1006.77
2018-01-25T04:36:45.613Z,1006.75
2018-01-25T04:37:45.475Z,1006.73
2018-01-25T04:38:45.490Z,1006.66
2018-01-25T04:39:45.503Z,1006.68
2018-01-25T04:40:45.518Z,1006.68
2018-01-25T04:41:45.583Z,1006.67
2018-01-25T04:42:45.548Z,1006.65
2018-01-25T04:43:45.616Z,1006.67
2018-01-25T04:44:45.576Z,1006.68
2018-01-25T04:45:45.593Z,1006.71
2018-01-25T04:46:45.624Z,1006.68
2018-01-25T04:47:45.621Z,1006.68
2018-01-25T04:48:45.635Z,1006.69
2018-01-25T04:49:45.648Z,1006.66
2018-01-25T04:50:45.661Z,1006.64
2018-01-25T04:51:45.828Z,1006.56
2018-01-25T04:52:45.696Z,1006.54
2018-01-25T04:53:45.713Z,1006.55
2018-01-25T04:54:45.721Z,1006.59
2018-01-25T04:55:45.736Z,1006.62
2018-01-25T04:56:45.849Z,1006.57
2018-01-25T04:57:45.960Z,1006.56
2018-01-25T04:58:46.047Z,1006.59
2018-01-25T04:59:46.425Z,1006.61
2018-01-25T05:00:45.806Z,1006.60
2018-01-25T05:01:45.823Z,1006.62
2018-01-25T05:02:45.842Z,1006.64
2018-01-25T05:03:45.850Z,1006.66
2018-01-25T05:04:45.865Z,1006.67
2018-01-25T05:05:45.881Z,1006.62
2018-01-25T05:06:45.898Z,1006.66
2018-01-25T05:07:45.910Z,1006.66
2018-01-25T05:08:45.926Z,1006.69
2018-01-25T05:09:45.945Z,1006.72
2018-01-25T05:10:45.952Z,1006.75
2018-01-25T05:11:45.965Z,1006.77
2018-01-25T05:12:45.981Z,1006.77
2018-01-25T05:13:45.995Z,1006.71
2018-01-25T05:14:46.044Z,1006.70
2018-01-25T05:15:46.028Z,1006.69
2018-01-25T05:16:46.043Z,1006.74
2018-01-25T05:17:46.048Z,1006.82
2018-01-25T05:18:46.067Z,1006.82
2018-01-25T05:19:46.081Z,1006.84
2018-01-25T05:20:46.098Z,1006.83
2018-01-25T05:21:46.108Z,1006.78
2018-01-25T05:22:46.122Z,1006.75
2018-01-25T05:23:46.140Z,1006.72
2018-01-25T05:24:46.155Z,1006.76
2018-01-25T05:25:46.177Z,1006.76
2018-01-25T05:26:46.187Z,1006.80
2018-01-25T05:27:46.195Z,1006.81
2018-01-25T05:28:46.428Z,1006.79
2018-01-25T05:29:46.407Z,1006.82
2018-01-25T05:31:46.778Z,1006.72
2018-01-25T05:32:47.116Z,1006.75
2018-01-25T05:33:47.349Z,1006.75
2018-01-25T05:34:46.334Z,1006.81
2018-01-25T05:35:46.309Z,1006.78
2018-01-25T05:36:46.326Z,1006.83
2018-01-25T05:37:46.339Z,1006.75
2018-01-25T05:38:47.025Z,1006.73
2018-01-25T05:39:46.518Z,1006.72
2018-01-25T05:40:46.528Z,1006.72
2018-01-25T05:41:46.393Z,1006.76
2018-01-25T05:42:46.407Z,1006.76
2018-01-25T05:43:46.681Z,1006.77
2018-01-25T05:44:46.436Z,1006.78
2018-01-25T05:45:46.451Z,1006.81
2018-01-25T05:46:46.464Z,1006.83
2018-01-25T05:47:46.653Z,1006.86
2018-01-25T05:48:46.493Z,1006.87
2018-01-25T05:49:46.508Z,1006.98
2018-01-25T05:50:46.528Z,1006.98
2018-01-25T05:51:46.573Z,1006.97
2018-01-25T05:52:46.553Z,1006.95
2018-01-25T05:53:47.276Z,1006.95
2018-01-25T05:54:46.581Z,1006.90
2018-01-25T05:55:46.595Z,1006.92
2018-01-25T05:56:46.618Z,1006.88
2018-01-25T05:57:50.898Z,1006.86
2018-01-25T05:58:46.644Z,1006.80
2018-01-25T05:59:46.653Z,1006.87
2018-01-25T06:00:46.772Z,1006.92
2018-01-25T06:02:46.724Z,1006.91
2018-01-25T06:03:46.772Z,1006.83
2018-01-25T06:04:46.796Z,1006.90
2018-01-25T06:05:47.171Z,1006.91
2018-01-25T06:06:46.761Z,1006.85
2018-01-25T06:07:46.770Z,1006.90
2018-01-25T06:08:46.807Z,1006.87
2018-01-25T06:09:47.009Z,1006.87
2018-01-25T06:10:48.030Z,1006.88
2018-01-25T06:11:47.352Z,1006.91
2018-01-25T06:12:47.198Z,1006.87
2018-01-25T06:13:47.737Z,1006.91
2018-01-25T06:14:47.107Z,1006.92
2018-01-25T06:15:46.910Z,1006.90
2018-01-25T06:16:47.709Z,1006.96
2018-01-25T06:17:46.912Z,1006.97
2018-01-25T06:18:47.041Z,1006.97
2018-01-25T06:20:46.959Z,1006.96
2018-01-25T06:21:46.970Z,1006.92
2018-01-25T06:22:47.531Z,1006.93
2018-01-25T06:24:47.024Z,1006.98
2018-01-25T06:25:47.562Z,1007.00
2018-01-25T06:26:47.316Z,1007.03
2018-01-25T06:27:47.951Z,1007.03
2018-01-25T06:28:47.819Z,1007.06
2018-01-25T06:29:47.377Z,1007.06
2018-01-25T06:31:47.971Z,1007.05
2018-01-25T06:32:47.840Z,1007.04
2018-01-25T06:34:48.076Z,1007.00
2018-01-25T06:35:47.187Z,1006.96
2018-01-25T06:36:47.180Z,1006.90
2018-01-25T06:37:47.248Z,1006.88
2018-01-25T06:38:47.262Z,1006.87
2018-01-25T06:39:47.918Z,1006.92
2018-01-25T06:40:47.310Z,1006.95
2018-01-25T06:41:47.266Z,1006.99
2018-01-25T06:42:47.319Z,1006.95
2018-01-25T06:43:47.309Z,1006.96
2018-01-25T06:44:47.298Z,1006.96
2018-01-25T06:45:47.306Z,1006.91
2018-01-25T06:46:47.324Z,1006.98
2018-01-25T06:47:47.446Z,1007.01
2018-01-25T06:48:47.398Z,1007.03
2018-01-25T06:49:47.514Z,1007.03
2018-01-25T06:50:47.379Z,1006.99
2018-01-25T06:51:47.392Z,1006.99
2018-01-25T06:52:47.422Z,1006.97
2018-01-25T06:53:47.522Z,1006.94
2018-01-25T06:54:47.437Z,1006.97
2018-01-25T06:55:47.455Z,1006.97
2018-01-25T06:56:47.468Z,1006.95
2018-01-25T06:57:47.481Z,1006.99
2018-01-25T06:59:47.505Z,1007.04
2018-01-25T07:00:47.523Z,1007.03
2018-01-25T07:01:47.533Z,1007.06
2018-01-25T07:02:47.716Z,1007.02
2018-01-25T07:03:47.870Z,1007.01
2018-01-25T07:05:47.608Z,1007.06
2018-01-25T07:06:48.184Z,1007.05
2018-01-25T07:07:47.630Z,1007.09
2018-01-25T07:08:47.691Z,1007.10
2018-01-25T07:09:48.680Z,1007.14
2018-01-25T07:11:47.675Z,1007.15
2018-01-25T07:12:47.869Z,1007.16
2018-01-25T07:13:47.704Z,1007.19
2018-01-25T07:14:47.739Z,1007.20
2018-01-25T07:15:47.741Z,1007.21
2018-01-25T07:16:47.751Z,1007.26
2018-01-25T07:17:47.761Z,1007.27
2018-01-25T07:18:47.810Z,1007.32
2018-01-25T07:19:47.837Z,1007.32
2018-01-25T07:20:47.957Z,1007.32
2018-01-25T07:21:47.843Z,1007.33
2018-01-25T07:22:48.125Z,1007.33
2018-01-25T07:23:47.949Z,1007.34
2018-01-25T07:24:48.036Z,1007.36
2018-01-25T07:25:47.877Z,1007.31
2018-01-25T07:26:47.889Z,1007.32
2018-01-25T07:27:47.929Z,1007.34
2018-01-25T07:28:47.922Z,1007.31
2018-01-25T07:29:48.078Z,1007.30
2018-01-25T07:30:48.102Z,1007.24
2018-01-25T07:31:47.962Z,1007.21
2018-01-25T07:32:47.993Z,1007.23
2018-01-25T07:33:47.995Z,1007.25
2018-01-25T07:34:48.005Z,1007.20
2018-01-25T07:35:48.028Z,1007.21
2018-01-25T07:36:48.029Z,1007.21
2018-01-25T07:37:48.047Z,1007.18
2018-01-25T07:38:48.073Z,1007.24
2018-01-25T07:39:48.455Z,1007.23
2018-01-25T07:40:48.277Z,1007.18
2018-01-25T07:41:48.384Z,1007.24
2018-01-25T07:42:48.712Z,1007.25
2018-01-25T07:43:49.121Z,1007.28
2018-01-25T07:44:49.032Z,1007.28
2018-01-25T07:45:48.197Z,1007.24
2018-01-25T07:46:48.164Z,1007.25
2018-01-25T07:47:48.176Z,1007.25
2018-01-25T07:48:48.193Z,1007.21
2018-01-25T07:49:48.203Z,1007.22
2018-01-25T07:50:48.346Z,1007.18
2018-01-25T07:51:48.446Z,1007.17
2018-01-25T07:52:49.049Z,1007.19
2018-01-25T07:53:48.536Z,1007.19
2018-01-25T07:54:48.423Z,1007.20
2018-01-25T07:55:48.671Z,1007.24
2018-01-25T07:56:48.426Z,1007.20
2018-01-25T07:57:48.993Z,1007.22
2018-01-25T07:58:49.049Z,1007.26
2018-01-25T07:59:48.446Z,1007.26
2018-01-25T08:00:49.570Z,1007.22
2018-01-25T08:01:48.378Z,1007.20
2018-01-25T08:02:48.484Z,1007.23
2018-01-25T08:03:49.147Z,1007.23
2018-01-25T08:04:48.419Z,1007.25
2018-01-25T08:05:48.430Z,1007.22
2018-01-25T08:06:48.440Z,1007.23
2018-01-25T08:07:48.603Z,1007.26
2018-01-25T08:08:48.472Z,1007.25
2018-01-25T08:09:49.963Z,1007.25
2018-01-25T08:10:48.501Z,1007.20
2018-01-25T08:11:48.510Z,1007.20
2018-01-25T08:12:48.736Z,1007.21
2018-01-25T08:13:48.593Z,1007.18
2018-01-25T08:14:48.782Z,1007.13
2018-01-25T08:15:48.663Z,1007.17
2018-01-25T08:16:48.735Z,1007.18
2018-01-25T08:17:48.600Z,1007.16
2018-01-25T08:18:48.617Z,1007.18
2018-01-25T08:19:48.876Z,1007.14
2018-01-25T08:20:49.405Z,1007.19
2018-01-25T08:21:49.333Z,1007.17
2018-01-25T08:22:50.091Z,1007.16
2018-01-25T08:23:49.570Z,1007.17
2018-01-25T08:24:48.713Z,1007.16
2018-01-25T08:25:48.714Z,1007.14
2018-01-25T08:26:48.909Z,1007.08
2018-01-25T08:27:48.740Z,1007.14
2018-01-25T08:28:48.819Z,1007.14
2018-01-25T08:29:48.762Z,1007.14
2018-01-25T08:30:49.838Z,1007.18
2018-01-25T08:31:48.792Z,1007.18
2018-01-25T08:32:48.807Z,1007.19
2018-01-25T08:33:48.820Z,1007.21
2018-01-25T08:34:48.835Z,1007.20
2018-01-25T08:35:49.179Z,1007.21
2018-01-25T08:36:48.893Z,1007.16
2018-01-25T08:37:49.527Z,1007.16
2018-01-25T08:38:48.913Z,1007.14
2018-01-25T08:39:49.070Z,1007.18
2018-01-25T08:40:48.921Z,1007.17
2018-01-25T08:41:48.975Z,1007.19
2018-01-25T08:42:48.962Z,1007.16
2018-01-25T08:43:48.968Z,1007.17
2018-01-25T08:46:49.068Z,1007.19
2018-01-25T08:47:49.027Z,1007.14
2018-01-25T08:48:49.034Z,1007.19
2018-01-25T08:50:50.722Z,1007.19
2018-01-25T08:51:49.943Z,1007.28
2018-01-25T08:52:49.894Z,1007.31
2018-01-25T08:55:49.962Z,1007.31
2018-01-25T08:56:49.196Z,1007.28
2018-01-25T08:57:49.546Z,1007.30
2018-01-25T08:58:49.181Z,1007.32
2018-01-25T08:59:49.199Z,1007.30
2018-01-25T09:00:49.359Z,1007.35
2018-01-25T09:01:49.221Z,1007.34
2018-01-25T09:02:49.235Z,1007.34
2018-01-25T09:03:49.257Z,1007.39
2018-01-25T09:04:49.273Z,1007.37
2018-01-25T09:05:49.276Z,1007.38
2018-01-25T09:06:49.728Z,1007.41
2018-01-25T09:08:49.343Z,1007.44
2018-01-25T09:09:49.340Z,1007.44
2018-01-25T09:10:49.501Z,1007.43
2018-01-25T09:11:49.365Z,1007.47
2018-01-25T09:12:49.381Z,1007.44
2018-01-25T09:13:49.397Z,1007.39
2018-01-25T09:14:49.421Z,1007.44
2018-01-25T09:15:49.420Z,1007.44
2018-01-25T09:16:50.306Z,1007.36
2018-01-25T09:17:50.334Z,1007.37
2018-01-25T09:18:50.395Z,1007.39
2018-01-25T09:19:50.559Z,1007.39
2018-01-25T09:20:49.496Z,1007.32
2018-01-25T09:21:49.509Z,1007.29
2018-01-25T09:22:49.560Z,1007.24
2018-01-25T09:23:49.580Z,1007.20
2018-01-25T09:24:49.569Z,1007.23
2018-01-25T09:25:49.568Z,1007.27
2018-01-25T09:26:49.583Z,1007.33
2018-01-25T09:27:49.605Z,1007.36
2018-01-25T09:28:49.605Z,1007.37
2018-01-25T09:29:49.624Z,1007.40
2018-01-25T09:30:49.645Z,1007.43
2018-01-25T09:31:49.651Z,1007.43
2018-01-25T09:32:49.673Z,1007.42
2018-01-25T09:33:49.682Z,1007.48
2018-01-25T09:34:49.696Z,1007.44
2018-01-25T09:35:49.843Z,1007.38
2018-01-25T09:36:49.724Z,1007.36
2018-01-25T09:38:51.116Z,1007.35
2018-01-25T09:39:50.470Z,1007.34
2018-01-25T09:40:49.863Z,1007.32
2018-01-25T09:41:49.803Z,1007.34
2018-01-25T09:42:49.804Z,1007.40
2018-01-25T09:43:49.818Z,1007.36
2018-01-25T09:44:49.863Z,1007.34
2018-01-25T09:45:49.847Z,1007.32
2018-01-25T09:46:49.862Z,1007.26
2018-01-25T09:47:49.877Z,1007.28
2018-01-25T09:48:50.526Z,1007.31
2018-01-25T09:49:49.907Z,1007.34
2018-01-25T09:50:49.920Z,1007.33
2018-01-25T09:51:50.273Z,1007.33
2018-01-25T09:52:50.053Z,1007.39
2018-01-25T09:53:49.971Z,1007.42
2018-01-25T09:54:50.637Z,1007.46
2018-01-25T09:55:49.993Z,1007.44
2018-01-25T09:56:50.030Z,1007.48
2018-01-25T09:57:50.025Z,1007.45
2018-01-25T09:58:50.038Z,1007.48
2018-01-25T09:59:50.051Z,1007.45
2018-01-25T10:00:50.067Z,1007.45
2018-01-25T10:01:50.117Z,1007.49
2018-01-25T10:02:50.299Z,1007.52
2018-01-25T10:03:50.110Z,1007.57
2018-01-25T10:04:50.130Z,1007.55
2018-01-25T10:05:50.139Z,1007.59
2018-01-25T10:06:50.152Z,1007.59
2018-01-25T10:07:50.270Z,1007.57
2018-01-25T10:09:50.197Z,1007.58
2018-01-25T10:10:50.362Z,1007.59
2018-01-25T10:11:50.378Z,1007.70
2018-01-25T10:12:50.241Z,1007.67
2018-01-25T10:13:50.254Z,1007.65
2018-01-25T10:14:50.378Z,1007.71
2018-01-25T10:15:50.284Z,1007.73
2018-01-25T10:16:50.300Z,1007.72
2018-01-25T10:17:50.346Z,1007.71
2018-01-25T10:18:50.327Z,1007.74
2018-01-25T10:19:50.344Z,1007.76
2018-01-25T10:20:50.358Z,1007.75
2018-01-25T10:21:50.373Z,1007.77
2018-01-25T10:22:50.553Z,1007.69
2018-01-25T10:23:50.403Z,1007.73
2018-01-25T10:24:50.420Z,1007.69
2018-01-25T10:25:51.216Z,1007.72
2018-01-25T10:26:50.545Z,1007.64
2018-01-25T10:27:50.562Z,1007.66
2018-01-25T10:28:50.478Z,1007.60
2018-01-25T10:31:50.570Z,1007.57
2018-01-25T10:32:50.537Z,1007.61
2018-01-25T10:33:50.564Z,1007.60
2018-01-25T10:34:50.565Z,1007.60
2018-01-25T10:35:50.733Z,1007.59
2018-01-25T10:36:52.184Z,1007.53
2018-01-25T10:37:50.838Z,1007.55
2018-01-25T10:38:50.626Z,1007.52
2018-01-25T10:39:50.649Z,1007.54
2018-01-25T10:40:50.702Z,1007.52
2018-01-25T10:41:50.681Z,1007.51
2018-01-25T10:42:50.685Z,1007.51
2018-01-25T10:43:50.703Z,1007.55
2018-01-25T10:45:50.881Z,1007.57
2018-01-25T10:46:50.742Z,1007.56
2018-01-25T10:47:50.758Z,1007.61
2018-01-25T10:49:50.787Z,1007.60
2018-01-25T10:50:51.453Z,1007.58
2018-01-25T10:51:50.875Z,1007.57
2018-01-25T10:52:50.974Z,1007.56
2018-01-25T10:53:50.903Z,1007.55
2018-01-25T10:54:51.230Z,1007.59
2018-01-25T10:56:50.892Z,1007.57
2018-01-25T10:57:50.967Z,1007.50
2018-01-25T10:58:50.926Z,1007.50
2018-01-25T10:59:50.937Z,1007.54
2018-01-25T11:00:50.964Z,1007.48
2018-01-25T11:01:51.152Z,1007.47
2018-01-25T11:02:50.981Z,1007.47
2018-01-25T11:03:51.156Z,1007.43
2018-01-25T11:04:51.285Z,1007.43
2018-01-25T11:05:51.356Z,1007.42
2018-01-25T11:06:51.041Z,1007.42
2018-01-25T11:07:51.060Z,1007.39
2018-01-25T11:08:51.073Z,1007.39
2018-01-25T11:09:51.092Z,1007.43
2018-01-25T11:10:51.102Z,1007.31
2018-01-25T11:11:51.117Z,1007.35
2018-01-25T11:12:51.136Z,1007.30
2018-01-25T11:13:51.146Z,1007.31
2018-01-25T11:14:51.178Z,1007.25
2018-01-25T11:15:51.249Z,1007.25
2018-01-25T11:16:51.216Z,1007.20
2018-01-25T11:17:51.215Z,1007.21
2018-01-25T11:18:51.221Z,1007.14
2018-01-25T11:19:51.246Z,1007.20
2018-01-25T11:20:51.251Z,1007.17
2018-01-25T11:21:51.270Z,1007.20
2018-01-25T11:22:51.382Z,1007.16
2018-01-25T11:23:51.338Z,1007.23
2018-01-25T11:24:51.311Z,1007.21
2018-01-25T11:25:51.332Z,1007.20
2018-01-25T11:26:51.644Z,1007.21
2018-01-25T11:27:51.359Z,1007.21
2018-01-25T11:28:51.370Z,1007.15
2018-01-25T11:29:51.389Z,1007.14
2018-01-25T11:30:51.405Z,1007.11
2018-01-25T11:31:51.419Z,1007.14
2018-01-25T11:32:51.436Z,1007.11
2018-01-25T11:33:51.472Z,1007.15
2018-01-25T11:34:51.474Z,1007.16
2018-01-25T11:35:51.481Z,1007.16
2018-01-25T11:36:51.495Z,1007.16
2018-01-25T11:37:51.514Z,1007.13
2018-01-25T11:38:51.527Z,1007.16
2018-01-25T11:39:51.538Z,1007.15
2018-01-25T11:40:51.554Z,1007.16
2018-01-25T11:41:51.576Z,1007.12
2018-01-25T11:42:51.585Z,1007.16
2018-01-25T11:43:51.603Z,1007.16
2018-01-25T11:44:51.645Z,1007.12
2018-01-25T11:45:51.631Z,1007.16
2018-01-25T11:46:51.644Z,1007.19
2018-01-25T11:47:51.663Z,1007.22
2018-01-25T11:48:51.675Z,1007.20
2018-01-25T11:49:51.690Z,1007.23
2018-01-25T11:50:51.706Z,1007.23
2018-01-25T11:51:51.720Z,1007.24
2018-01-25T11:52:51.736Z,1007.24
2018-01-25T11:53:51.752Z,1007.28
2018-01-25T11:54:51.771Z,1007.28
2018-01-25T11:55:51.782Z,1007.27
2018-01-25T11:56:51.798Z,1007.25
2018-01-25T11:57:51.815Z,1007.21
2018-01-25T11:58:51.896Z,1007.21
2018-01-25T11:59:51.910Z,1007.20
2018-01-25T12:00:51.860Z,1007.16
2018-01-25T12:01:52.279Z,1007.11
2018-01-25T12:02:52.482Z,1007.10
2018-01-25T12:03:53.488Z,1007.10
2018-01-25T12:04:53.600Z,1007.04
2018-01-25T12:05:53.005Z,1007.08
2018-01-25T12:06:52.231Z,1007.04
2018-01-25T12:07:52.175Z,1006.97
2018-01-25T12:08:52.260Z,1006.94
2018-01-25T12:09:52.354Z,1006.92
2018-01-25T12:10:52.015Z,1006.92
2018-01-25T12:11:52.031Z,1006.97
2018-01-25T12:12:52.045Z,1006.93
2018-01-25T12:13:52.061Z,1006.94
2018-01-25T12:14:52.071Z,1006.92
2018-01-25T12:15:52.087Z,1006.93
2018-01-25T12:16:52.108Z,1006.97
2018-01-25T12:17:52.119Z,1006.96
2018-01-25T12:18:52.137Z,1006.97
2018-01-25T12:19:52.149Z,1006.94
2018-01-25T12:20:52.318Z,1006.98
2018-01-25T12:21:52.421Z,1006.96
2018-01-25T12:22:52.199Z,1006.99
2018-01-25T12:23:52.342Z,1006.97
2018-01-25T12:24:52.228Z,1007.04
2018-01-25T12:25:52.245Z,1007.08
2018-01-25T12:26:52.257Z,1007.05
2018-01-25T12:27:52.570Z,1007.01
2018-01-25T12:28:52.290Z,1007.01
2018-01-25T12:29:52.303Z,1007.05
2018-01-25T12:30:52.315Z,1007.06
2018-01-25T12:31:52.335Z,1006.95
2018-01-25T12:32:52.350Z,1007.00
2018-01-25T12:33:52.368Z,1006.95
2018-01-25T12:34:52.377Z,1006.89
2018-01-25T12:35:52.411Z,1006.88
2018-01-25T12:36:52.434Z,1006.83
2018-01-25T12:37:52.423Z,1006.84
2018-01-25T12:38:52.541Z,1006.90
2018-01-25T12:39:52.641Z,1006.86
2018-01-25T12:40:52.472Z,1006.88
2018-01-25T12:41:52.484Z,1006.86
2018-01-25T12:42:52.501Z,1006.88
2018-01-25T12:43:52.520Z,1006.91
2018-01-25T12:44:52.683Z,1006.82
2018-01-25T12:45:52.549Z,1006.80
2018-01-25T12:46:52.576Z,1006.76
2018-01-25T12:47:52.724Z,1006.77